Decoded Metar for KGPH ( in ) (IATA:) | Meteo·Mobile Aviation Weather
aviador You're here:

KGPH Decoded Metar

in
Report Time2019-11-16 01:55:00
UTC Time2019-11-16 01:37:24
Flight Rules vfr VFR
WindCalm
Visibility9999 m
Phenomena:N/A
Clouds:N/A
Expected CloudBase > 3,600 ft AGL from Temp-Dew spread
CeilingNone
Temp06°C
Dew Point-3°C (53% RH)
AAT3.6°C
QNH1026 hPa
Raw Report
KGPH 160155Z AUTO 00000KT 10SM CLR 06/M03 A3031 RMK AO2=

Extra information for KGPH:More info

Social comments